Time;durP1;ratioP1;P1;durP2;ratioP2;P2;SDS_P1;SDS_P2;PMS_P1;PMS_P2;Temp;Humidity;BMP_temperature;BMP_pressure;BME280_temperature;BME280_humidity;BME280_pressure;Samples;Min_cycle;Max_cycle;Signal;HPM_P1;HPM_P2
2023/04/10 00:00:56;;;;;;;;;;;6.50;82.90;;;5.33;nan;96638.06;4974122;28;19922;-85
2023/04/10 00:03:26;;;;;;;;;;;6.50;82.80;;;5.33;nan;96624.50;4957982;28;20099;-85
2023/04/10 00:05:54;;;;;;;;;;;6.50;82.80;;;5.33;nan;96623.69;4958068;28;19922;-85
2023/04/10 00:08:22;;;;;;;;;;;6.50;82.80;;;5.32;nan;96627.47;4957933;28;19922;-85
2023/04/10 00:10:50;;;;;;;;;;;6.50;82.70;;;5.32;nan;96625.56;4957886;28;19922;-85
2023/04/10 00:13:18;;;;;;;;;;;6.50;82.60;;;5.32;nan;96622.03;4973752;28;19929;-85
2023/04/10 00:15:46;;;;;;;;;;;6.50;82.70;;;5.31;nan;96623.09;4957870;28;19922;-85
2023/04/10 00:18:14;;;;;;;;;;;6.50;82.60;;;5.31;nan;96617.66;4957796;28;19922;-85
2023/04/10 00:20:43;;;;;;;;;;;6.50;82.60;;;5.31;nan;96621.19;4974017;28;20224;-85
2023/04/10 00:23:11;;;;;;;;;;;6.50;82.40;;;5.31;nan;96620.38;4957543;28;19922;-85
2023/04/10 00:25:39;;;;;;;;;;;6.50;82.40;;;5.31;nan;96620.38;4957473;28;19923;-85
2023/04/10 00:28:07;;;;;;;;;;;6.50;82.30;;;5.30;nan;96618.69;4973759;28;19922;-85
2023/04/10 00:30:35;;;;;;;;;;;6.50;82.30;;;5.30;nan;96614.09;4957770;28;19922;-85
2023/04/10 00:33:03;;;;;;;;;;;6.50;82.30;;;5.30;nan;96618.69;4973242;28;19928;-85
2023/04/10 00:35:31;;;;;;;;;;;6.50;82.20;;;5.29;nan;96619.75;4973541;28;20117;-85
2023/04/10 00:38:01;;;;;;;;;;;6.50;82.10;;;5.29;nan;96622.47;4973670;28;19928;-85
2023/04/10 00:40:29;;;;;;;;;;;6.50;82.10;;;5.30;nan;96618.69;4973595;28;19922;-85
2023/04/10 00:42:57;;;;;;;;;;;6.50;82.10;;;5.29;nan;96617.88;4973695;28;19927;-85
2023/04/10 00:45:25;;;;;;;;;;;6.50;82.10;;;5.29;nan;96617.03;4956477;28;20218;-84
2023/04/10 00:47:53;;;;;;;;;;;6.50;82.10;;;5.30;nan;96618.69;4957465;28;19922;-85
2023/04/10 00:50:22;;;;;;;;;;;6.50;82.10;;;5.27;nan;96617.28;4957260;28;19922;-85
2023/04/10 00:52:50;;;;;;;;;;;6.50;82.10;;;5.29;nan;96619.75;4986780;28;19921;-85
2023/04/10 00:55:20;;;;;;;;;;;6.50;82.30;;;5.28;nan;96616.22;4992733;28;19922;-85
2023/04/10 00:57:48;;;;;;;;;;;6.50;82.20;;;5.28;nan;96615.38;4976483;28;20239;-85
2023/04/10 01:00:16;;;;;;;;;;;6.50;82.00;;;5.27;nan;96605.56;4976599;28;19929;-84
2023/04/10 01:02:44;;;;;;;;;;;6.50;82.00;;;5.28;nan;96608.09;4973085;28;19930;-85
2023/04/10 01:05:12;;;;;;;;;;;6.40;81.80;;;5.28;nan;96608.09;4973326;28;20121;-84
2023/04/10 01:07:51;;;;;;;;;;;6.50;82.00;;;5.28;nan;96607.25;4957261;28;20218;-85
2023/04/10 01:10:27;;;;;;;;;;;6.50;82.20;;;5.28;nan;96604.53;4973042;28;19922;-84
2023/04/10 01:12:59;;;;;;;;;;;6.40;82.10;;;5.28;nan;96604.53;4957060;28;19928;-85
2023/04/10 01:15:28;;;;;;;;;;;6.40;81.90;;;5.28;nan;96607.25;4956933;28;19923;-84
2023/04/10 01:17:58;;;;;;;;;;;6.40;81.80;;;5.27;nan;96603.72;4972883;28;19922;-85
2023/04/10 01:20:28;;;;;;;;;;;6.40;81.70;;;5.25;nan;96605.81;4973045;28;19922;-85
2023/04/10 01:23:12;;;;;;;;;;;6.40;81.60;;;5.27;nan;96608.28;4956807;28;19929;-85
2023/04/10 01:25:44;;;;;;;;;;;6.50;81.80;;;5.27;nan;96611.84;4956929;28;19922;-85
2023/04/10 01:28:30;;;;;;;;;;;6.50;81.70;;;5.27;nan;96609.13;4957094;28;19922;-85
2023/04/10 01:31:00;;;;;;;;;;;6.50;81.70;;;5.26;nan;96598.50;4956745;28;19928;-85
2023/04/10 01:33:30;;;;;;;;;;;6.40;81.70;;;5.27;nan;96602.88;4956613;28;19922;-85
2023/04/10 01:35:59;;;;;;;;;;;6.50;81.90;;;5.26;nan;96607.47;4956497;28;20129;-84
2023/04/10 01:38:27;;;;;;;;;;;6.40;81.80;;;5.26;nan;96604.75;4956825;28;19922;-85
2023/04/10 01:40:55;;;;;;;;;;;6.50;82.00;;;5.26;nan;96602.03;4972394;28;19922;-85
2023/04/10 01:43:30;;;;;;;;;;;6.40;81.80;;;5.26;nan;96595.78;4972652;28;19922;-85
2023/04/10 01:45:59;;;;;;;;;;;6.40;81.70;;;5.26;nan;96598.50;4972410;28;19922;-85
2023/04/10 01:48:27;;;;;;;;;;;6.40;81.70;;;5.26;nan;96595.78;4956029;28;19928;-85
2023/04/10 01:50:57;;;;;;;;;;;6.50;81.70;;;5.27;nan;96597.44;4956533;28;19997;-85
2023/04/10 01:53:25;;;;;;;;;;;6.50;81.80;;;5.26;nan;96593.06;4956430;28;19922;-85
2023/04/10 01:55:53;;;;;;;;;;;6.40;81.70;;;5.27;nan;96597.44;4955992;28;19930;-85
2023/04/10 01:58:22;;;;;;;;;;;6.50;81.80;;;5.26;nan;96595.78;4956444;28;19922;-85
2023/04/10 02:00:50;;;;;;;;;;;6.40;81.70;;;5.26;nan;96598.50;4956186;28;19922;-85
2023/04/10 02:03:20;;;;;;;;;;;6.50;82.00;;;5.26;nan;96603.91;4956199;28;19930;-84
2023/04/10 02:06:02;;;;;;;;;;;6.50;82.00;;;5.26;nan;96601.19;4955976;28;19922;-85
2023/04/10 02:08:33;;;;;;;;;;;6.40;81.70;;;5.25;nan;96594.09;4956434;28;19928;-85
2023/04/10 02:11:07;;;;;;;;;;;6.40;81.70;;;5.25;nan;96594.97;4956028;28;20236;-85
2023/04/10 02:13:35;;;;;;;;;;;6.40;81.80;;;5.25;nan;96589.53;4964908;28;19928;-85
2023/04/10 02:16:05;;;;;;;;;;;6.40;81.80;;;5.26;nan;96601.19;4991315;28;19928;-85
2023/04/10 02:18:34;;;;;;;;;;;6.40;81.80;;;5.25;nan;96591.41;4975414;28;19922;-85
2023/04/10 02:21:02;;;;;;;;;;;6.40;81.70;;;5.23;nan;96586.22;4975246;28;19922;-85
2023/04/10 02:23:30;;;;;;;;;;;6.40;81.60;;;5.25;nan;96585.97;4974804;28;19928;-85
2023/04/10 02:25:58;;;;;;;;;;;6.50;81.70;;;5.24;nan;96587.88;4974197;28;19928;-85
2023/04/10 02:28:26;;;;;;;;;;;6.40;81.60;;;5.25;nan;96585.97;4974931;28;20120;-85
2023/04/10 02:30:54;;;;;;;;;;;6.40;81.60;;;5.23;nan;96586.22;4991371;28;19921;-85
2023/04/10 02:33:22;;;;;;;;;;;6.40;81.60;;;5.23;nan;96583.50;4975131;28;20129;-85
2023/04/10 02:35:51;;;;;;;;;;;6.40;81.60;;;5.23;nan;96586.22;4991071;28;19936;-85
2023/04/10 02:38:19;;;;;;;;;;;6.40;81.60;;;5.22;nan;96579.13;4975524;28;19922;-86
2023/04/10 02:40:49;;;;;;;;;;;6.40;81.70;;;5.21;nan;96581.03;4975299;28;19922;-85
2023/04/10 02:43:18;;;;;;;;;;;6.40;81.60;;;5.21;nan;96586.44;4975205;28;19922;-85
2023/04/10 02:45:47;;;;;;;;;;;6.40;81.80;;;5.22;nan;96579.97;4975044;28;19922;-84
2023/04/10 02:48:22;;;;;;;;;;;6.40;81.80;;;5.22;nan;96584.53;4975242;28;19928;-86
2023/04/10 02:50:59;;;;;;;;;;;6.40;81.80;;;5.22;nan;96579.97;4975222;28;19922;-85
2023/04/10 02:53:29;;;;;;;;;;;6.40;82.00;;;5.22;nan;96579.97;4991090;28;20027;-85
2023/04/10 02:56:01;;;;;;;;;;;6.40;81.60;;;5.21;nan;96572.88;4974886;28;19921;-85
2023/04/10 02:58:30;;;;;;;;;;;6.40;81.60;;;5.22;nan;96573.69;4991183;28;19922;-85
2023/04/10 03:00:58;;;;;;;;;;;6.40;81.70;;;5.21;nan;96578.31;4975193;28;19932;-85
2023/04/10 03:03:46;;;;;;;;;;;6.40;81.70;;;5.21;nan;96578.31;4974947;28;19932;-85
2023/04/10 03:06:26;;;;;;;;;;;6.40;81.60;;;5.21;nan;96577.47;4974681;28;19922;-85
2023/04/10 03:08:55;;;;;;;;;;;6.40;81.70;;;5.20;nan;96573.94;4994416;28;19928;-85
2023/04/10 03:11:22;;;;;;;;;;;6.40;81.80;;;5.20;nan;96576.63;4978372;28;19922;-86
2023/04/10 03:13:50;;;;;;;;;;;6.40;81.80;;;5.20;nan;96582.06;4978064;28;19922;-85
2023/04/10 03:16:18;;;;;;;;;;;6.40;81.60;;;5.20;nan;96584.78;4994116;28;19922;-85
2023/04/10 03:18:47;;;;;;;;;;;6.40;81.60;;;5.19;nan;96580.41;4978316;28;19928;-85
2023/04/10 03:21:15;;;;;;;;;;;6.40;81.50;;;5.19;nan;96569.56;4978152;28;19922;-85
2023/04/10 03:23:45;;;;;;;;;;;6.40;81.60;;;5.19;nan;96574.97;4994148;28;19922;-85
2023/04/10 03:26:13;;;;;;;;;;;6.40;81.70;;;5.19;nan;96574.97;4977944;28;19922;-85
2023/04/10 03:28:41;;;;;;;;;;;6.40;81.70;;;5.18;nan;96576.03;4994379;28;19922;-86
2023/04/10 03:31:11;;;;;;;;;;;6.40;81.60;;;5.19;nan;96579.56;4974556;28;19922;-85
2023/04/10 03:33:41;;;;;;;;;;;6.40;81.60;;;5.17;nan;96579.81;4958485;28;19922;-85
2023/04/10 03:36:10;;;;;;;;;;;6.40;81.50;;;5.19;nan;96580.41;4974510;28;19930;-85
2023/04/10 03:38:39;;;;;;;;;;;6.40;81.60;;;5.16;nan;96580.84;4974584;28;20116;-86
2023/04/10 03:41:11;;;;;;;;;;;6.40;81.60;;;5.19;nan;96577.69;4958661;28;19926;-85
2023/04/10 03:43:39;;;;;;;;;;;6.40;81.60;;;5.18;nan;96586.03;4990652;28;20116;-85
2023/04/10 03:46:08;;;;;;;;;;;6.40;81.60;;;5.17;nan;96577.09;4974329;28;19930;-86
2023/04/10 03:48:41;;;;;;;;;;;6.40;81.70;;;5.17;nan;96582.50;4974631;28;19929;-86
2023/04/10 03:51:11;;;;;;;;;;;6.40;81.70;;;5.17;nan;96582.50;4990494;28;19929;-86
2023/04/10 03:53:39;;;;;;;;;;;6.40;81.80;;;5.17;nan;96582.50;4974217;28;19922;-86
2023/04/10 03:56:13;;;;;;;;;;;6.40;81.80;;;5.18;nan;96592.31;4958205;28;20117;-86
2023/04/10 03:58:42;;;;;;;;;;;6.40;81.70;;;5.16;nan;96578.13;4974414;28;19923;-85
2023/04/10 04:01:10;;;;;;;;;;;6.40;81.70;;;5.18;nan;96595.03;4958293;28;19929;-86
2023/04/10 04:03:55;;;;;;;;;;;6.40;81.80;;;5.18;nan;96589.59;4974503;28;19922;-86
2023/04/10 04:06:41;;;;;;;;;;;6.40;81.70;;;5.19;nan;96595.84;4974194;28;19948;-86
2023/04/10 04:09:25;;;;;;;;;;;6.40;81.80;;;5.19;nan;96595.84;4958373;28;19922;-86
2023/04/10 04:12:20;;;;;;;;;;;6.40;81.60;;;5.21;nan;96600.00;4957932;28;19922;-86
2023/04/10 04:15:00;;;;;;;;;;;6.40;81.50;;;5.22;nan;96600.84;4957932;28;19933;-86
2023/04/10 04:17:45;;;;;;;;;;;6.40;81.40;;;5.23;nan;96603.31;4957917;28;19928;-86
2023/04/10 04:20:39;;;;;;;;;;;6.40;81.30;;;5.25;nan;96591.41;4987866;28;19928;-87
2023/04/10 04:23:14;;;;;;;;;;;6.40;81.20;;;5.28;nan;96596.38;4957633;28;19922;-86
2023/04/10 04:25:42;;;;;;;;;;;6.40;81.20;;;5.29;nan;96593.47;4989910;28;20229;-86
2023/04/10 04:28:12;;;;;;;;;;;6.50;81.00;;;5.31;nan;96591.31;4989969;28;19929;-85
2023/04/10 04:31:01;;;;;;;;;;;6.50;80.80;;;5.32;nan;96584.03;4989957;28;19933;-85
2023/04/10 04:33:49;;;;;;;;;;;6.50;80.70;;;5.35;nan;96587.09;4957385;28;19922;-85
2023/04/10 04:36:36;;;;;;;;;;;6.50;80.50;;;5.38;nan;96596.66;4974986;28;19944;-87
2023/04/10 04:39:13;;;;;;;;;;;6.60;80.30;;;5.40;nan;96591.84;4989821;28;20232;-86
2023/04/10 04:41:49;;;;;;;;;;;6.60;80.20;;;5.41;nan;96588.06;4989942;28;20143;-85
2023/04/10 04:44:45;;;;;;;;;;;6.60;80.10;;;5.44;nan;96586.78;4967387;28;20202;-86
2023/04/10 04:47:39;;;;;;;;;;;6.60;80.10;;;5.46;nan;96595.53;4960461;28;19922;-85
2023/04/10 04:50:17;;;;;;;;;;;6.70;80.20;;;5.49;nan;96597.78;4975451;28;19926;-86
2023/04/10 04:53:00;;;;;;;;;;;6.70;80.30;;;5.53;nan;96604.44;4992879;28;19944;-86
2023/04/10 04:55:34;;;;;;;;;;;6.70;80.60;;;5.59;nan;96608.13;4993129;28;19922;-86
2023/04/10 04:58:23;;;;;;;;;;;6.80;80.80;;;5.66;nan;96603.41;4985632;28;19928;-85
2023/04/10 05:01:31;;;;;;;;;;;6.90;81.10;;;5.81;nan;96608.44;4988967;28;19921;-86
2023/04/10 05:04:25;;;;;;;;;;;7.00;81.00;;;5.99;nan;96603.00;4975441;28;19922;-86
2023/04/10 05:07:15;;;;;;;;;;;7.30;80.70;;;6.25;nan;96608.28;4992401;28;19928;-86
2023/04/10 05:10:05;;;;;;;;;;;7.60;79.80;;;6.53;nan;96602.16;4976724;28;19922;-86
2023/04/10 05:13:02;;;;;;;;;;;8.00;78.30;;;6.91;nan;96602.75;4969023;28;20205;-86
2023/04/10 05:15:53;;;;;;;;;;;8.40;76.40;;;7.24;nan;96609.50;4972744;28;20120;-86
2023/04/10 05:18:41;;;;;;;;;;;8.80;74.80;;;7.55;nan;96609.31;4973306;28;19929;-86
2023/04/10 05:21:30;;;;;;;;;;;9.10;73.30;;;7.80;nan;96606.28;4959745;28;19922;-86
2023/04/10 05:24:21;;;;;;;;;;;9.30;71.70;;;7.98;nan;96613.44;4946614;28;20121;-86
2023/04/10 05:27:09;;;;;;;;;;;9.50;70.60;;;8.08;nan;96607.31;4972441;28;20209;-86
2023/04/10 05:29:55;;;;;;;;;;;9.50;70.00;;;8.07;nan;96614.69;4972617;28;20095;-86
2023/04/10 05:32:44;;;;;;;;;;;9.50;69.90;;;8.04;nan;96608.91;4972620;28;20121;-86
2023/04/10 05:35:34;;;;;;;;;;;9.40;70.10;;;7.92;nan;96607.06;4959524;28;19929;-86
2023/04/10 05:38:24;;;;;;;;;;;9.30;70.80;;;7.79;nan;96607.34;4956854;28;19922;-86
2023/04/10 05:41:10;;;;;;;;;;;9.10;71.60;;;7.67;nan;96607.38;4972737;28;19928;-85
2023/04/10 05:43:42;;;;;;;;;;;9.00;72.20;;;7.59;nan;96614.03;4956566;28;19928;-86
2023/04/10 05:46:11;;;;;;;;;;;8.90;72.70;;;7.54;nan;96611.22;4972809;28;19922;-86
2023/04/10 05:48:59;;;;;;;;;;;8.90;73.30;;;7.53;nan;96613.09;4962571;28;19926;-86
2023/04/10 05:51:49;;;;;;;;;;;8.80;73.60;;;7.52;nan;96607.91;4956477;28;19922;-86
2023/04/10 05:54:42;;;;;;;;;;;8.80;73.70;;;7.52;nan;96603.28;4970126;28;19928;-85
2023/04/10 05:57:29;;;;;;;;;;;8.80;74.00;;;7.55;nan;96603.88;4972479;28;19928;-86
2023/04/10 06:00:08;;;;;;;;;;;8.70;74.10;;;7.56;nan;96602.78;4956621;28;19928;-85
2023/04/10 06:02:41;;;;;;;;;;;8.70;74.30;;;7.56;nan;96603.59;4983921;28;19922;-85
2023/04/10 06:05:16;;;;;;;;;;;8.70;74.30;;;7.54;nan;96597.59;4975924;28;19928;-85
2023/04/10 06:07:47;;;;;;;;;;;8.70;74.30;;;7.52;nan;96595.09;4975624;28;19944;-86
2023/04/10 06:10:16;;;;;;;;;;;8.70;74.30;;;7.54;nan;96597.59;4992098;28;19928;-86
2023/04/10 06:12:44;;;;;;;;;;;8.70;74.40;;;7.50;nan;96599.97;4991773;28;19930;-86
2023/04/10 06:15:12;;;;;;;;;;;8.60;74.50;;;7.47;nan;96602.34;4975426;28;19928;-86
2023/04/10 06:17:43;;;;;;;;;;;8.60;74.50;;;7.46;nan;96600.69;4975701;28;19968;-86
2023/04/10 06:20:13;;;;;;;;;;;8.60;74.50;;;7.42;nan;96602.25;4991606;28;20202;-86
2023/04/10 06:22:41;;;;;;;;;;;8.50;74.70;;;7.39;nan;96595.38;4991586;28;19926;-86
2023/04/10 06:25:11;;;;;;;;;;;8.50;74.80;;;7.35;nan;96592.31;4975395;28;19928;-86
2023/04/10 06:27:39;;;;;;;;;;;8.50;75.00;;;7.34;nan;96592.56;4975411;28;19922;-85
2023/04/10 06:30:10;;;;;;;;;;;8.50;75.20;;;7.31;nan;96593.84;4975646;28;20217;-86
2023/04/10 06:32:38;;;;;;;;;;;8.40;75.30;;;7.29;nan;96596.00;4975354;28;19928;-86
2023/04/10 06:35:07;;;;;;;;;;;8.40;75.40;;;7.27;nan;96600.84;4975075;28;20217;-85
2023/04/10 06:37:35;;;;;;;;;;;8.40;75.50;;;7.24;nan;96595.88;4991507;28;19922;-85
2023/04/10 06:40:06;;;;;;;;;;;8.40;75.60;;;7.21;nan;96591.75;4975280;28;19922;-85
2023/04/10 06:42:35;;;;;;;;;;;8.40;75.80;;;7.18;nan;96599.53;4990602;28;19922;-86
2023/04/10 06:45:10;;;;;;;;;;;8.30;75.90;;;7.16;nan;96594.34;4975095;28;20239;-86
2023/04/10 06:47:38;;;;;;;;;;;8.30;76.00;;;7.14;nan;96582.88;4975128;28;19928;-86
2023/04/10 06:50:07;;;;;;;;;;;8.30;76.10;;;7.15;nan;96589.16;4991517;28;20243;-85
2023/04/10 06:52:35;;;;;;;;;;;8.30;76.20;;;7.14;nan;96591.03;4975124;28;19922;-85
2023/04/10 06:55:03;;;;;;;;;;;8.30;76.30;;;7.13;nan;96591.28;4974766;28;19926;-86
2023/04/10 06:57:31;;;;;;;;;;;8.30;76.30;;;7.13;nan;96591.28;4988682;28;19929;-86
2023/04/10 07:00:00;;;;;;;;;;;8.30;76.30;;;7.12;nan;96587.72;4955714;28;19922;-85
2023/04/10 07:02:28;;;;;;;;;;;8.30;76.40;;;7.12;nan;96584.19;4971700;28;19922;-85
2023/04/10 07:04:56;;;;;;;;;;;8.20;76.30;;;7.13;nan;96585.84;4971409;28;20148;-85
2023/04/10 07:07:24;;;;;;;;;;;8.30;76.60;;;7.11;nan;96591.50;4972161;28;20135;-86
2023/04/10 07:09:52;;;;;;;;;;;8.20;76.40;;;7.12;nan;96581.47;4991054;28;19944;-86
2023/04/10 07:12:23;;;;;;;;;;;8.20;76.50;;;7.12;nan;96587.72;4974994;28;20213;-85
2023/04/10 07:14:51;;;;;;;;;;;8.20;76.60;;;7.10;nan;96589.03;4955231;28;19922;-85
2023/04/10 07:17:21;;;;;;;;;;;8.20;76.60;;;7.10;nan;96584.41;4971791;28;19929;-86
2023/04/10 07:19:49;;;;;;;;;;;8.20;76.70;;;7.11;nan;96591.50;4955474;28;19922;-85
2023/04/10 07:22:17;;;;;;;;;;;8.20;76.70;;;7.12;nan;96584.19;4987769;28;19926;-86
2023/04/10 07:24:45;;;;;;;;;;;8.20;76.80;;;7.12;nan;96590.44;4988259;28;19922;-85
2023/04/10 07:27:13;;;;;;;;;;;8.20;76.80;;;7.11;nan;96588.78;4990781;28;20233;-86
2023/04/10 07:29:41;;;;;;;;;;;8.20;76.70;;;7.12;nan;96586.91;4974572;28;19929;-85
2023/04/10 07:32:08;;;;;;;;;;;8.20;76.80;;;7.11;nan;96575.16;4992082;28;20462;-86
2023/04/10 07:34:38;;;;;;;;;;;8.20;76.80;;;7.12;nan;96578.75;4974219;28;19922;-85
2023/04/10 07:37:06;;;;;;;;;;;8.20;76.80;;;7.13;nan;96574.94;4990712;28;19921;-87
2023/04/10 07:39:34;;;;;;;;;;;8.20;76.80;;;7.12;nan;96574.09;4974570;28;19922;-86
2023/04/10 07:42:02;;;;;;;;;;;8.20;76.80;;;7.12;nan;96574.09;5007118;28;19929;-86
2023/04/10 07:44:30;;;;;;;;;;;8.20;76.80;;;7.13;nan;96569.50;4974272;28;19922;-86
2023/04/10 07:46:58;;;;;;;;;;;8.20;76.80;;;7.15;nan;96570.09;4990793;28;19922;-86
2023/04/10 07:49:26;;;;;;;;;;;8.20;76.80;;;7.12;nan;96560.50;4974389;28;20231;-86
2023/04/10 07:51:56;;;;;;;;;;;8.30;76.90;;;7.16;nan;96563.59;4990698;28;19922;-86
2023/04/10 07:54:24;;;;;;;;;;;8.20;76.80;;;7.19;nan;96572.09;5009088;28;19922;-86
2023/04/10 07:56:52;;;;;;;;;;;8.20;76.80;;;7.20;nan;96565.59;4993666;28;19922;-87
2023/04/10 07:59:20;;;;;;;;;;;8.30;76.90;;;7.22;nan;96565.34;4977550;28;20213;-86
2023/04/10 08:01:48;;;;;;;;;;;8.30;76.80;;;7.25;nan;96562.13;4993751;28;19922;-86
2023/04/10 08:04:16;;;;;;;;;;;8.30;76.70;;;7.25;nan;96562.13;4977388;28;19921;-85
2023/04/10 08:06:44;;;;;;;;;;;8.30;76.70;;;7.26;nan;96561.06;4977220;28;19922;-86
2023/04/10 08:09:13;;;;;;;;;;;8.30;76.70;;;7.26;nan;96563.81;4977298;28;19923;-87
2023/04/10 08:11:41;;;;;;;;;;;8.30;76.80;;;7.25;nan;96556.69;4994691;28;19922;-85
2023/04/10 08:14:10;;;;;;;;;;;8.30;76.70;;;7.25;nan;96559.41;4977091;28;19929;-86
2023/04/10 08:16:38;;;;;;;;;;;8.30;76.80;;;7.25;nan;96551.25;4993330;28;19922;-86
2023/04/10 08:19:06;;;;;;;;;;;8.30;76.80;;;7.26;nan;96562.94;4977299;28;20240;-87
2023/04/10 08:21:34;;;;;;;;;;;8.40;76.80;;;7.27;nan;96549.13;4977253;28;19928;-86
2023/04/10 08:24:03;;;;;;;;;;;8.30;76.80;;;7.26;nan;96546.63;4993155;28;19928;-87
2023/04/10 08:26:32;;;;;;;;;;;8.30;76.80;;;7.26;nan;96544.72;4993455;28;20133;-87
2023/04/10 08:29:00;;;;;;;;;;;8.30;76.80;;;7.26;nan;96549.34;4974534;28;19934;-86
2023/04/10 08:31:28;;;;;;;;;;;8.40;76.80;;;7.27;nan;96549.13;4973891;28;20122;-86
2023/04/10 08:33:56;;;;;;;;;;;8.40;76.70;;;7.27;nan;96543.66;4973768;28;20210;-86
2023/04/10 08:36:25;;;;;;;;;;;8.40;76.70;;;7.26;nan;96542.00;4974660;28;19922;-87
2023/04/10 08:38:53;;;;;;;;;;;8.40;76.70;;;7.26;nan;96531.13;4958518;28;20126;-86
2023/04/10 08:41:21;;;;;;;;;;;8.40;76.50;;;7.27;nan;96543.66;4958440;28;19922;-86
2023/04/10 08:43:51;;;;;;;;;;;8.40;76.60;;;7.27;nan;96542.81;4974473;28;19922;-87
2023/04/10 08:46:19;;;;;;;;;;;8.40;76.80;;;7.23;nan;96537.03;4974248;28;19922;-86
2023/04/10 08:48:48;;;;;;;;;;;8.40;76.50;;;7.18;nan;96535.03;4958237;28;19929;-86
2023/04/10 08:51:18;;;;;;;;;;;8.30;76.60;;;7.14;nan;96527.59;4958225;28;19922;-85
2023/04/10 08:53:48;;;;;;;;;;;8.30;76.70;;;7.06;nan;96526.88;4958135;28;19926;-86
2023/04/10 08:56:16;;;;;;;;;;;8.20;76.70;;;7.02;nan;96524.91;4991474;28;19921;-86
2023/04/10 08:58:44;;;;;;;;;;;8.20;77.00;;;6.95;nan;96516.84;4993728;28;19921;-87
2023/04/10 09:01:14;;;;;;;;;;;8.10;77.10;;;6.90;nan;96524.94;4976699;28;19922;-87
2023/04/10 09:03:42;;;;;;;;;;;8.10;77.30;;;6.85;nan;96519.38;4974012;28;20094;-86
2023/04/10 09:06:10;;;;;;;;;;;8.00;77.50;;;6.80;nan;96527.41;4956832;28;19928;-85
2023/04/10 09:08:38;;;;;;;;;;;8.00;77.70;;;6.77;nan;96527.91;4957616;28;19922;-85
2023/04/10 09:11:06;;;;;;;;;;;8.00;77.80;;;6.70;nan;96520.69;4987949;28;19936;-86
2023/04/10 09:13:36;;;;;;;;;;;7.90;78.00;;;6.67;nan;96523.88;4976987;28;19922;-87
2023/04/10 09:16:04;;;;;;;;;;;7.90;78.20;;;6.61;nan;96519.41;4993069;28;19928;-86
2023/04/10 09:18:42;;;;;;;;;;;7.80;79.20;;;6.58;nan;96525.31;4992944;28;19921;-87
2023/04/10 09:21:11;;;;;;;;;;;7.80;78.50;;;6.55;nan;96520.31;4976474;28;20213;-85
2023/04/10 09:23:38;;;;;;;;;;;7.70;78.70;;;6.50;nan;96512.88;5009276;28;19921;-87
2023/04/10 09:26:22;;;;;;;;;;;7.70;78.80;;;6.49;nan;96515.84;4992694;28;19921;-86
2023/04/10 09:29:00;;;;;;;;;;;7.70;79.00;;;6.46;nan;96514.41;4993055;28;19921;-86
2023/04/10 09:31:29;;;;;;;;;;;7.60;79.10;;;6.43;nan;96513.00;4962290;28;19922;-87
2023/04/10 09:34:15;;;;;;;;;;;7.60;79.20;;;6.41;nan;96519.75;4957143;28;19922;-87
2023/04/10 09:36:43;;;;;;;;;;;7.60;79.30;;;6.39;nan;96516.44;4972747;28;19929;-86
2023/04/10 09:39:12;;;;;;;;;;;7.60;79.50;;;6.37;nan;96513.13;4976328;28;19922;-86
2023/04/10 09:41:50;;;;;;;;;;;7.50;79.50;;;6.35;nan;96505.22;4961650;28;19922;-87
2023/04/10 09:44:19;;;;;;;;;;;7.50;79.60;;;6.33;nan;96504.59;4956980;28;19929;-87
2023/04/10 09:46:48;;;;;;;;;;;7.50;79.70;;;6.32;nan;96505.66;4956871;28;19922;-86
2023/04/10 09:49:17;;;;;;;;;;;7.50;79.80;;;6.32;nan;96504.84;4957109;28;19928;-86
2023/04/10 09:51:46;;;;;;;;;;;7.50;79.80;;;6.31;nan;96503.19;4956644;28;19929;-86
2023/04/10 09:54:14;;;;;;;;;;;7.50;79.90;;;6.29;nan;96500.69;4956618;28;19929;-86
2023/04/10 09:56:42;;;;;;;;;;;7.50;80.00;;;6.29;nan;96511.56;4956850;28;19922;-87
2023/04/10 09:59:10;;;;;;;;;;;7.50;80.00;;;6.28;nan;96505.31;4956911;28;20118;-86
2023/04/10 10:01:38;;;;;;;;;;;7.40;79.90;;;6.28;nan;96499.88;4972847;28;19928;-87
2023/04/10 10:04:06;;;;;;;;;;;7.40;80.00;;;6.29;nan;96506.13;4972690;28;19928;-86
2023/04/10 10:06:35;;;;;;;;;;;7.40;80.10;;;6.27;nan;96498.22;4972831;28;19944;-86
2023/04/10 10:09:04;;;;;;;;;;;7.40;80.10;;;6.26;nan;96495.75;4956704;28;19922;-87
2023/04/10 10:11:33;;;;;;;;;;;7.40;80.10;;;6.27;nan;96498.22;4972703;28;19928;-86
2023/04/10 10:14:03;;;;;;;;;;;7.40;80.10;;;6.27;nan;96491.94;4956571;28;20206;-86
2023/04/10 10:16:34;;;;;;;;;;;7.40;80.00;;;6.27;nan;96491.94;4972662;28;19922;-87
2023/04/10 10:19:06;;;;;;;;;;;7.40;80.20;;;6.27;nan;96490.06;4972610;28;19933;-86
2023/04/10 10:21:35;;;;;;;;;;;7.40;80.10;;;6.27;nan;96494.66;4956481;28;19922;-86
2023/04/10 10:24:04;;;;;;;;;;;7.40;80.10;;;6.25;nan;96484.03;4972359;28;19922;-86
2023/04/10 10:26:33;;;;;;;;;;;7.40;80.20;;;6.26;nan;96487.59;4972374;28;19928;-87
2023/04/10 10:29:03;;;;;;;;;;;7.40;80.20;;;6.26;nan;96479.44;4956631;28;19922;-87
2023/04/10 10:31:32;;;;;;;;;;;7.40;80.20;;;6.25;nan;96484.03;4972168;28;19922;-86
2023/04/10 10:34:03;;;;;;;;;;;7.40;80.20;;;6.25;nan;96478.59;4955835;28;20114;-86
2023/04/10 10:36:32;;;;;;;;;;;7.40;80.20;;;6.26;nan;96479.44;4978153;28;19929;-86
2023/04/10 10:39:18;;;;;;;;;;;7.40;81.00;;;6.24;nan;96473.41;4975573;28;19922;-86
2023/04/10 10:41:50;;;;;;;;;;;7.40;80.20;;;6.26;nan;96474.00;4988126;28;19928;-87
2023/04/10 10:44:23;;;;;;;;;;;7.40;80.30;;;6.26;nan;96480.25;4975120;28;19922;-86
2023/04/10 10:46:52;;;;;;;;;;;7.40;80.20;;;6.27;nan;96481.06;4991610;28;20281;-87
2023/04/10 10:49:20;;;;;;;;;;;7.40;80.20;;;6.26;nan;96479.44;4975428;28;20196;-87
2023/04/10 10:51:48;;;;;;;;;;;7.40;80.30;;;6.25;nan;96475.88;4975388;28;19921;-87
2023/04/10 10:54:34;;;;;;;;;;;7.40;80.20;;;6.26;nan;96474.00;4991314;28;19922;-86
2023/04/10 10:57:04;;;;;;;;;;;7.40;80.20;;;6.25;nan;96472.34;4991566;28;19922;-87
2023/04/10 10:59:54;;;;;;;;;;;7.40;80.30;;;6.26;nan;96468.56;4975434;28;19928;-86
2023/04/10 11:02:22;;;;;;;;;;;7.40;80.30;;;6.24;nan;96460.63;4974957;28;20214;-87
2023/04/10 11:04:50;;;;;;;;;;;7.40;80.30;;;6.23;nan;96460.88;4991139;28;19928;-86
2023/04/10 11:07:18;;;;;;;;;;;7.40;80.40;;;6.24;nan;96465.25;4975065;28;19921;-87
2023/04/10 11:09:50;;;;;;;;;;;7.40;80.40;;;6.24;nan;96462.53;4975255;28;19922;-86
2023/04/10 11:12:20;;;;;;;;;;;7.40;80.40;;;6.24;nan;96459.81;4974964;28;20213;-86
2023/04/10 11:14:57;;;;;;;;;;;7.40;80.40;;;6.24;nan;96451.66;4974893;28;19922;-86
2023/04/10 11:17:47;;;;;;;;;;;7.40;80.40;;;6.25;nan;96456.03;4974747;28;20121;-86
2023/04/10 11:20:15;;;;;;;;;;;7.40;80.40;;;6.24;nan;96449.75;4974904;28;19922;-86
2023/04/10 11:23:07;;;;;;;;;;;7.40;80.50;;;6.24;nan;96460.63;4974534;28;20236;-84
2023/04/10 11:25:53;;;;;;;;;;;7.40;80.50;;;6.24;nan;96452.47;4980195;28;19922;-86
2023/04/10 11:28:37;;;;;;;;;;;7.40;80.40;;;6.24;nan;96447.03;4992133;28;19922;-87
2023/04/10 11:31:18;;;;;;;;;;;7.40;80.50;;;6.23;nan;96448.09;4994451;28;19922;-87
2023/04/10 11:33:47;;;;;;;;;;;7.40;80.40;;;6.24;nan;96447.03;4977964;28;20189;-86
2023/04/10 11:36:16;;;;;;;;;;;7.40;80.50;;;6.23;nan;96437.22;4978113;28;19922;-86
2023/04/10 11:38:55;;;;;;;;;;;7.40;80.40;;;6.25;nan;96451.41;4977990;28;19928;-86
2023/04/10 11:41:29;;;;;;;;;;;7.40;80.50;;;6.24;nan;96438.06;4972357;28;19922;-87
2023/04/10 11:43:57;;;;;;;;;;;7.40;80.50;;;6.25;nan;96445.16;4974712;28;20145;-87
2023/04/10 11:46:25;;;;;;;;;;;7.40;80.40;;;6.24;nan;96438.06;4974824;28;20113;-86
2023/04/10 11:48:54;;;;;;;;;;;7.40;80.40;;;6.25;nan;96434.28;4974424;28;19922;-86
2023/04/10 11:51:22;;;;;;;;;;;7.40;80.50;;;6.24;nan;96433.44;4958588;28;19933;-87
2023/04/10 11:53:50;;;;;;;;;;;7.40;80.50;;;6.25;nan;96437.00;4974592;28;19922;-87
2023/04/10 11:56:19;;;;;;;;;;;7.40;80.50;;;6.23;nan;96430.97;4958506;28;19922;-87
2023/04/10 11:58:51;;;;;;;;;;;7.40;80.50;;;6.24;nan;96440.78;4958703;28;19922;-86
2023/04/10 12:01:21;;;;;;;;;;;7.40;80.50;;;6.23;nan;96436.41;4974813;28;19922;-86
2023/04/10 12:03:49;;;;;;;;;;;7.40;80.50;;;6.23;nan;96430.97;4971271;28;19928;-86
2023/04/10 12:06:18;;;;;;;;;;;7.40;80.50;;;6.22;nan;96434.75;4993619;28;19922;-86
2023/04/10 12:08:48;;;;;;;;;;;7.40;80.60;;;6.22;nan;96432.03;4994692;28;20371;-86
2023/04/10 12:11:19;;;;;;;;;;;7.40;80.60;;;6.20;nan;96421.38;4993912;28;19922;-87
2023/04/10 12:13:47;;;;;;;;;;;7.40;80.70;;;6.20;nan;96415.94;4966155;28;19922;-86
2023/04/10 12:16:16;;;;;;;;;;;7.40;80.70;;;6.20;nan;96417.84;4957946;28;19929;-87